Time;durP1;ratioP1;P1;durP2;ratioP2;P2;SDS_P1;SDS_P2;PMS_P1;PMS_P2;Temp;Humidity;BMP_temperature;BMP_pressure;BME280_temperature;BME280_humidity;BME280_pressure;Samples;Min_cycle;Max_cycle;Signal;HPM_P1;HPM_P2
2022/01/11 00:01:31;;;;;;;46.08;27.40;;;-0.80;99.90;;;;;;4961371;28;20042;-57
2022/01/11 00:03:57;;;;;;;45.72;26.90;;;-0.80;99.90;;;;;;4965290;28;20505;-54
2022/01/11 00:09:00;;;;;;;45.72;26.38;;;-0.80;99.90;;;;;;4968968;28;20133;-57
2022/01/11 00:11:27;;;;;;;50.97;27.50;;;-0.80;99.90;;;;;;4973145;28;20050;-56
2022/01/11 00:13:52;;;;;;;49.78;27.95;;;-0.80;99.90;;;;;;4964038;28;20039;-56
2022/01/11 00:16:18;;;;;;;48.30;26.88;;;-0.80;99.90;;;;;;4967138;28;20395;-57
2022/01/11 00:18:44;;;;;;;43.38;25.15;;;-0.80;99.90;;;;;;4967686;28;20031;-54
2022/01/11 00:21:10;;;;;;;52.28;27.30;;;-0.80;99.90;;;;;;4964519;28;20030;-55
2022/01/11 00:26:02;;;;;;;56.00;27.90;;;-0.70;99.90;;;;;;4966634;28;20129;-55
2022/01/11 00:28:29;;;;;;;48.13;27.35;;;-0.70;99.90;;;;;;4960748;28;20047;-55
2022/01/11 00:30:55;;;;;;;57.25;28.85;;;-0.70;99.90;;;;;;4963511;28;20046;-54
2022/01/11 00:33:36;;;;;;;54.13;28.85;;;-0.70;99.90;;;;;;4968784;28;20085;-56
2022/01/11 00:36:03;;;;;;;51.58;27.45;;;-0.80;99.90;;;;;;4962573;28;20046;-52
2022/01/11 00:38:32;;;;;;;56.78;28.85;;;-0.80;99.90;;;;;;4962266;28;20082;-57
2022/01/11 00:41:02;;;;;;;52.78;27.42;;;-0.70;99.90;;;;;;4966346;28;20119;-55
2022/01/11 00:43:29;;;;;;;50.85;26.67;;;-0.70;99.90;;;;;;4964886;28;20038;-53
2022/01/11 00:45:56;;;;;;;47.20;26.92;;;-0.70;99.90;;;;;;4960958;28;20043;-56
2022/01/11 00:48:22;;;;;;;51.28;27.30;;;-0.80;99.90;;;;;;4964461;28;20046;-55
2022/01/11 00:50:49;;;;;;;53.65;27.30;;;-0.80;99.90;;;;;;4971801;28;20495;-57
2022/01/11 00:53:15;;;;;;;55.67;26.95;;;-0.70;99.90;;;;;;4972717;28;20085;-57
2022/01/11 00:55:41;;;;;;;50.10;28.00;;;-0.70;99.90;;;;;;4970371;28;20035;-56
2022/01/11 00:58:07;;;;;;;56.00;27.58;;;-0.70;99.90;;;;;;4967342;28;20130;-55
2022/01/11 01:00:34;;;;;;;51.50;27.23;;;-0.70;99.90;;;;;;4967335;28;20490;-56
2022/01/11 01:03:01;;;;;;;56.17;28.35;;;-0.80;99.90;;;;;;4956672;28;20494;-57
2022/01/11 01:05:28;;;;;;;56.88;28.80;;;-0.80;99.90;;;;;;4959242;28;20042;-55
2022/01/11 01:07:53;;;;;;;50.47;28.38;;;-0.80;99.90;;;;;;4960074;28;20169;-56
2022/01/11 01:10:26;;;;;;;56.88;28.50;;;-0.70;99.90;;;;;;4949781;28;20125;-57
2022/01/11 01:12:55;;;;;;;55.08;28.10;;;-0.80;99.90;;;;;;4954698;28;20399;-57
2022/01/11 01:15:22;;;;;;;57.70;27.73;;;-0.80;99.90;;;;;;4962366;28;20042;-55
2022/01/11 01:17:48;;;;;;;53.65;27.25;;;-0.80;99.90;;;;;;4967587;28;20076;-56
2022/01/11 01:20:14;;;;;;;56.45;27.30;;;-0.80;99.90;;;;;;4964607;28;20046;-57
2022/01/11 01:22:39;;;;;;;57.35;27.67;;;-0.70;99.90;;;;;;4963264;28;20046;-56
2022/01/11 01:25:06;;;;;;;59.13;28.60;;;-0.80;99.90;;;;;;4963940;28;20514;-54
2022/01/11 01:27:32;;;;;;;56.90;27.40;;;-0.80;99.90;;;;;;4962516;28;20615;-57
2022/01/11 01:29:58;;;;;;;52.47;27.45;;;-0.80;99.90;;;;;;4970497;28;20382;-55
2022/01/11 01:32:24;;;;;;;56.63;27.38;;;-0.80;99.90;;;;;;4972546;28;20035;-57
2022/01/11 01:34:55;;;;;;;62.72;27.33;;;-0.80;99.90;;;;;;4957032;28;20050;-57
2022/01/11 01:37:21;;;;;;;57.63;28.33;;;-0.80;99.90;;;;;;4957026;28;20083;-53
2022/01/11 01:39:47;;;;;;;60.00;27.58;;;-0.80;99.90;;;;;;4959650;28;20074;-57
2022/01/11 01:42:12;;;;;;;55.75;27.25;;;-0.80;99.90;;;;;;4964892;28;20039;-57
2022/01/11 01:44:40;;;;;;;53.00;26.23;;;-0.90;99.90;;;;;;4954851;28;20164;-57
2022/01/11 01:47:08;;;;;;;58.03;27.35;;;-0.90;99.90;;;;;;4964003;28;20074;-57
2022/01/11 01:49:36;;;;;;;58.65;27.80;;;-0.90;99.90;;;;;;4964244;28;20117;-57
2022/01/11 01:52:02;;;;;;;58.85;28.08;;;-0.90;99.90;;;;;;4965426;28;20078;-56
2022/01/11 01:54:28;;;;;;;59.72;27.98;;;-0.80;99.90;;;;;;4965102;28;20047;-57
2022/01/11 01:56:53;;;;;;;55.58;27.70;;;-0.90;99.90;;;;;;4955643;28;20075;-57
2022/01/11 01:59:20;;;;;;;60.88;28.50;;;-0.90;99.90;;;;;;4956570;28;20141;-57
2022/01/11 02:01:47;;;;;;;64.80;28.13;;;-0.90;99.90;;;;;;4965486;28;20026;-55
2022/01/11 02:04:16;;;;;;;64.30;27.60;;;-0.90;99.90;;;;;;4949132;28;20051;-55
2022/01/11 02:06:42;;;;;;;61.03;28.45;;;-0.90;99.90;;;;;;4960994;28;20138;-53
2022/01/11 02:09:10;;;;;;;61.33;29.08;;;-0.90;99.90;;;;;;4953307;28;20122;-55
2022/01/11 02:11:35;;;;;;;70.25;29.42;;;-0.90;99.90;;;;;;4972267;28;20052;-55
2022/01/11 02:14:01;;;;;;;78.78;31.05;;;-0.90;99.90;;;;;;4965178;28;20027;-56
2022/01/11 02:16:27;;;;;;;74.63;31.98;;;-0.90;99.90;;;;;;4961768;28;20086;-55
2022/01/11 02:18:53;;;;;;;74.03;30.80;;;-0.90;99.90;;;;;;4953845;28;20043;-57
2022/01/11 02:21:20;;;;;;;70.55;31.33;;;-0.90;99.90;;;;;;4966208;28;20055;-56
2022/01/11 02:23:46;;;;;;;66.28;29.23;;;-0.90;99.90;;;;;;4967398;28;20042;-53
2022/01/11 02:26:12;;;;;;;77.30;30.20;;;-1.00;99.90;;;;;;4968154;28;20058;-57
2022/01/11 02:28:38;;;;;;;87.93;33.75;;;-1.00;99.90;;;;;;4966450;28;20043;-56
2022/01/11 02:31:07;;;;;;;81.35;32.05;;;-0.90;99.90;;;;;;4965778;28;20047;-56
2022/01/11 02:33:44;;;;;;;83.88;32.92;;;-1.00;99.90;;;;;;4968653;28;20050;-55
2022/01/11 02:36:19;;;;;;;107.15;36.70;;;-1.00;99.90;;;;;;4969522;28;20384;-56
2022/01/11 02:38:46;;;;;;;103.47;35.13;;;-1.00;99.90;;;;;;4972882;28;20125;-56
2022/01/11 02:41:12;;;;;;;115.03;35.70;;;-1.00;99.90;;;;;;4964490;28;20034;-55
2022/01/11 02:43:43;;;;;;;103.53;35.35;;;-1.00;99.90;;;;;;4969675;28;20039;-54
2022/01/11 02:46:09;;;;;;;111.40;36.47;;;-1.00;99.90;;;;;;4965937;28;20043;-56
2022/01/11 02:48:35;;;;;;;115.93;36.20;;;-1.10;99.90;;;;;;4966987;28;20427;-56
2022/01/11 02:51:01;;;;;;;115.95;35.83;;;-1.00;99.90;;;;;;4968749;28;20042;-55
2022/01/11 02:53:26;;;;;;;110.85;36.58;;;-1.00;99.90;;;;;;4963101;28;20062;-56
2022/01/11 02:55:52;;;;;;;105.38;35.97;;;-1.10;99.90;;;;;;4962870;28;20609;-58
2022/01/11 02:58:18;;;;;;;111.38;37.50;;;-1.10;99.90;;;;;;4964262;28;20162;-57
2022/01/11 03:00:44;;;;;;;112.82;35.35;;;-1.00;99.90;;;;;;4967542;28;20039;-56
2022/01/11 03:03:18;;;;;;;105.72;36.10;;;-1.00;99.90;;;;;;4966611;28;20038;-55
2022/01/11 03:05:48;;;;;;;101.47;34.20;;;-1.00;99.90;;;;;;4970245;28;20478;-57
2022/01/11 03:08:15;;;;;;;90.00;34.10;;;-1.00;99.90;;;;;;4967664;28;20046;-57
2022/01/11 03:10:41;;;;;;;100.65;36.38;;;-1.00;99.90;;;;;;4965668;28;20057;-58
2022/01/11 03:13:09;;;;;;;114.25;36.92;;;-1.00;99.90;;;;;;4959887;28;20080;-58
2022/01/11 03:15:37;;;;;;;103.72;36.10;;;-1.00;99.90;;;;;;4958323;28;20043;-58
2022/01/11 03:18:05;;;;;;;102.32;35.50;;;-0.90;99.90;;;;;;4964815;28;20491;-55
2022/01/11 03:20:32;;;;;;;115.72;37.53;;;-1.00;99.90;;;;;;4965899;28;20490;-56
2022/01/11 03:22:58;;;;;;;100.97;34.58;;;-1.00;99.90;;;;;;4960914;28;20427;-57
2022/01/11 03:25:25;;;;;;;109.35;35.95;;;-0.90;99.90;;;;;;4958375;28;20039;-56
2022/01/11 03:27:51;;;;;;;102.25;36.05;;;-1.00;99.90;;;;;;4964879;28;20101;-57
2022/01/11 03:30:17;;;;;;;103.53;35.10;;;-1.00;99.90;;;;;;4949527;28;20387;-59
2022/01/11 03:32:43;;;;;;;100.85;35.53;;;-1.00;99.90;;;;;;4940767;28;20383;-57
2022/01/11 03:35:10;;;;;;;110.88;36.25;;;-1.00;99.90;;;;;;4967369;28;20043;-57
2022/01/11 03:37:38;;;;;;;108.53;36.33;;;-1.00;99.90;;;;;;4971675;28;20106;-56
2022/01/11 03:40:08;;;;;;;110.38;35.65;;;-1.00;99.90;;;;;;4961505;28;20043;-55
2022/01/11 03:42:33;;;;;;;110.60;36.55;;;-1.00;99.90;;;;;;4964022;28;20054;-56
2022/01/11 03:44:59;;;;;;;100.43;36.10;;;-0.90;99.90;;;;;;4974162;28;20479;-56
2022/01/11 03:47:25;;;;;;;94.72;33.53;;;-0.90;99.90;;;;;;4960610;28;20130;-54
2022/01/11 03:49:50;;;;;;;97.90;34.67;;;-0.90;99.90;;;;;;4960223;28;20043;-54
2022/01/11 03:52:16;;;;;;;94.80;33.25;;;-0.90;99.90;;;;;;4959382;28;20070;-52
2022/01/11 03:55:04;;;;;;;96.88;32.85;;;-0.90;99.90;;;;;;4964839;28;20113;-54
2022/01/11 03:57:31;;;;;;;92.40;32.35;;;-0.90;99.90;;;;;;4965342;28;20046;-55
2022/01/11 04:00:00;;;;;;;90.20;32.28;;;-0.90;99.90;;;;;;4962514;28;20039;-55
2022/01/11 04:02:26;;;;;;;98.80;33.47;;;-0.90;99.90;;;;;;4963298;28;20047;-56
2022/01/11 04:04:52;;;;;;;88.60;32.13;;;-0.90;99.90;;;;;;4961077;28;20070;-56
2022/01/11 04:07:20;;;;;;;84.30;30.08;;;-0.90;99.90;;;;;;4966880;28;20104;-54
2022/01/11 04:09:47;;;;;;;81.85;30.33;;;-0.90;99.90;;;;;;4964515;28;20043;-53
2022/01/11 04:12:13;;;;;;;88.13;30.50;;;-0.90;99.90;;;;;;4955408;28;20089;-55
2022/01/11 04:14:39;;;;;;;83.10;30.15;;;-0.90;99.90;;;;;;4964033;28;20042;-53
2022/01/11 04:17:04;;;;;;;79.70;29.77;;;-0.90;99.90;;;;;;4969674;28;20046;-52
2022/01/11 04:19:30;;;;;;;81.47;29.13;;;-0.90;99.90;;;;;;4957440;28;20041;-54
2022/01/11 04:21:57;;;;;;;72.90;28.67;;;-0.90;99.90;;;;;;4964153;28;20027;-56
2022/01/11 04:24:23;;;;;;;77.18;29.80;;;-0.90;99.90;;;;;;4961385;28;20039;-57
2022/01/11 04:26:50;;;;;;;72.15;27.80;;;-1.00;99.90;;;;;;4971200;28;20062;-56
2022/01/11 04:29:16;;;;;;;75.50;29.33;;;-1.00;99.90;;;;;;4967276;28;20080;-54
2022/01/11 04:31:42;;;;;;;77.68;28.98;;;-1.00;99.90;;;;;;4964381;28;20043;-57
2022/01/11 04:34:08;;;;;;;80.50;30.17;;;-1.00;99.90;;;;;;4972739;28;20042;-55
2022/01/11 04:36:33;;;;;;;72.10;28.52;;;-1.00;99.90;;;;;;4963769;28;20082;-58
2022/01/11 04:39:00;;;;;;;66.05;27.85;;;-1.00;99.90;;;;;;4963620;28;20069;-58
2022/01/11 04:41:26;;;;;;;83.43;30.25;;;-1.00;99.90;;;;;;4958813;28;20079;-55
2022/01/11 04:43:51;;;;;;;60.83;27.38;;;-1.00;99.90;;;;;;4961500;28;20073;-56
2022/01/11 04:46:18;;;;;;;69.40;27.02;;;-1.00;99.90;;;;;;4964639;28;20116;-52
2022/01/11 04:48:48;;;;;;;65.25;26.40;;;-0.90;99.90;;;;;;4967159;28;20078;-54
2022/01/11 04:51:14;;;;;;;69.97;26.65;;;-1.00;99.90;;;;;;4958317;28;20038;-55
2022/01/11 04:53:39;;;;;;;60.42;26.45;;;-1.00;99.90;;;;;;4967724;28;20042;-57
2022/01/11 04:56:05;;;;;;;63.75;27.27;;;-1.00;99.90;;;;;;4960806;28;20086;-56
2022/01/11 04:58:31;;;;;;;69.72;27.73;;;-1.00;99.90;;;;;;4970356;28;20093;-57
2022/01/11 05:00:57;;;;;;;65.07;27.50;;;-1.00;99.90;;;;;;4960119;28;20043;-56
2022/01/11 05:03:23;;;;;;;68.00;26.95;;;-1.00;99.90;;;;;;4970392;28;20046;-57
2022/01/11 05:05:49;;;;;;;61.05;24.98;;;-0.90;99.90;;;;;;4955583;28;20039;-55
2022/01/11 05:08:14;;;;;;;61.83;26.42;;;-1.00;99.90;;;;;;4963948;28;20145;-55
2022/01/11 05:10:42;;;;;;;60.60;24.90;;;-1.00;99.90;;;;;;4957030;28;20399;-56
2022/01/11 05:13:16;;;;;;;58.05;25.05;;;-1.00;99.90;;;;;;4963715;28;20043;-58
2022/01/11 05:15:42;;;;;;;54.67;24.45;;;-1.00;99.90;;;;;;4968905;28;20129;-57
2022/01/11 05:18:08;;;;;;;52.58;22.77;;;-1.00;99.90;;;;;;4956616;28;20076;-53
2022/01/11 05:20:39;;;;;;;56.15;23.95;;;-1.00;99.90;;;;;;4963343;28;20093;-56
2022/01/11 05:23:07;;;;;;;61.30;24.95;;;-1.00;99.90;;;;;;4962841;28;20130;-58
2022/01/11 05:25:33;;;;;;;59.05;25.10;;;-1.00;99.90;;;;;;4955636;28;20034;-57
2022/01/11 05:27:59;;;;;;;57.85;23.45;;;0.00;99.90;;;;;;4957061;28;20384;-55
2022/01/11 05:30:26;;;;;;;51.65;23.40;;;-1.10;99.90;;;;;;4969770;28;20063;-55
2022/01/11 05:32:52;;;;;;;54.47;23.45;;;-1.00;99.90;;;;;;4966976;28;20082;-55
2022/01/11 05:35:19;;;;;;;49.25;21.92;;;-1.10;99.90;;;;;;4969018;28;20077;-57
2022/01/11 05:37:45;;;;;;;53.58;23.17;;;-1.10;99.90;;;;;;4965249;28;20158;-57
2022/01/11 05:40:11;;;;;;;53.05;22.60;;;-1.10;99.90;;;;;;4965989;28;20121;-57
2022/01/11 05:42:38;;;;;;;49.78;22.85;;;-1.10;99.90;;;;;;4961219;28;20042;-53
2022/01/11 05:45:05;;;;;;;49.00;22.85;;;-1.10;99.90;;;;;;4961627;28;20031;-55
2022/01/11 05:47:31;;;;;;;48.38;21.48;;;-1.10;99.90;;;;;;4957975;28;20062;-56
2022/01/11 05:49:57;;;;;;;49.45;22.33;;;-1.10;99.90;;;;;;4972372;28;20097;-55
2022/01/11 05:52:23;;;;;;;45.65;21.65;;;-1.20;99.90;;;;;;4960609;28;20043;-54
2022/01/11 05:54:48;;;;;;;48.38;21.48;;;-1.20;99.90;;;;;;4968246;28;20372;-56
2022/01/11 05:57:14;;;;;;;51.75;22.65;;;-1.20;99.90;;;;;;4967945;28;20174;-56
2022/01/11 05:59:39;;;;;;;50.60;22.65;;;-1.20;99.90;;;;;;4963761;28;20031;-53
2022/01/11 06:02:06;;;;;;;55.80;23.50;;;-1.20;99.90;;;;;;4976108;28;20042;-55
2022/01/11 06:04:31;;;;;;;50.03;22.05;;;-1.20;99.90;;;;;;4955618;28;20154;-54
2022/01/11 06:06:57;;;;;;;46.92;22.55;;;-1.20;99.90;;;;;;4973826;28;20450;-56
2022/01/11 06:09:26;;;;;;;49.03;21.30;;;-1.20;99.90;;;;;;4956124;28;20062;-54
2022/01/11 06:11:53;;;;;;;45.97;20.48;;;-1.30;99.90;;;;;;4967222;28;20581;-55
2022/01/11 06:14:19;;;;;;;52.17;23.15;;;-1.30;99.90;;;;;;4956274;28;20106;-52
2022/01/11 06:16:44;;;;;;;53.20;21.83;;;-1.30;99.90;;;;;;4966699;28;20035;-55
2022/01/11 06:19:10;;;;;;;52.20;23.42;;;-1.30;99.90;;;;;;4972494;28;20130;-56
2022/01/11 06:21:36;;;;;;;46.17;21.35;;;-1.10;99.90;;;;;;4964916;28;20118;-55
2022/01/11 06:24:02;;;;;;;52.95;23.23;;;-1.30;99.90;;;;;;4967057;28;20117;-56
2022/01/11 06:26:28;;;;;;;55.20;22.75;;;-1.30;99.90;;;;;;4966551;28;20105;-55
2022/01/11 06:28:56;;;;;;;60.83;23.05;;;-1.40;99.90;;;;;;4960289;28;20126;-54
2022/01/11 06:31:23;;;;;;;61.33;23.58;;;-1.30;99.90;;;;;;4966443;28;20509;-55
2022/01/11 06:33:49;;;;;;;61.85;25.73;;;-1.40;99.90;;;;;;4970105;28;20043;-55
2022/01/11 06:36:14;;;;;;;62.92;25.13;;;-1.40;99.90;;;;;;4957179;28;20125;-56
2022/01/11 06:38:42;;;;;;;61.00;25.52;;;-1.40;99.90;;;;;;4965836;28;20523;-53
2022/01/11 06:41:09;;;;;;;61.05;24.23;;;-1.40;99.90;;;;;;4971019;28;20042;-53
2022/01/11 06:43:35;;;;;;;66.00;24.60;;;-1.30;99.90;;;;;;4964376;28;20070;-57
2022/01/11 06:46:02;;;;;;;63.83;25.85;;;-1.30;99.90;;;;;;4965174;28;20034;-54
2022/01/11 06:48:28;;;;;;;73.63;27.92;;;-1.30;99.90;;;;;;4967056;28;20081;-56
2022/01/11 06:50:54;;;;;;;67.82;27.10;;;-1.30;99.90;;;;;;4969405;28;20066;-54
2022/01/11 06:53:20;;;;;;;67.22;26.92;;;-1.30;99.90;;;;;;4959896;28;20452;-57
2022/01/11 06:55:46;;;;;;;76.03;27.02;;;-1.30;99.90;;;;;;4961737;28;20038;-55
2022/01/11 06:58:11;;;;;;;70.32;26.95;;;-1.20;99.90;;;;;;4962821;28;20094;-54
2022/01/11 07:00:37;;;;;;;70.38;26.80;;;-1.20;99.90;;;;;;4967722;28;20125;-53
2022/01/11 07:03:03;;;;;;;70.18;26.92;;;-1.20;99.90;;;;;;4963248;28;20042;-56
2022/01/11 07:05:28;;;;;;;71.82;27.75;;;-1.20;99.90;;;;;;4967627;28;20051;-52
2022/01/11 07:07:54;;;;;;;81.15;27.80;;;-1.20;99.90;;;;;;4966363;28;20066;-57
2022/01/11 07:10:20;;;;;;;77.07;28.13;;;-1.20;99.90;;;;;;4965474;28;20054;-54
2022/01/11 07:12:45;;;;;;;77.07;27.35;;;-1.10;99.90;;;;;;4967995;28;20078;-54
2022/01/11 07:15:11;;;;;;;76.80;27.73;;;-1.20;99.90;;;;;;4968624;28;20105;-57
2022/01/11 07:17:38;;;;;;;81.10;27.83;;;-1.20;99.90;;;;;;4964606;28;20578;-55
2022/01/11 07:20:05;;;;;;;77.85;29.77;;;-1.10;99.90;;;;;;4955533;28;20054;-53
2022/01/11 07:22:31;;;;;;;78.32;27.05;;;-1.10;99.90;;;;;;4956715;28;20039;-53
2022/01/11 07:24:57;;;;;;;80.68;28.33;;;-1.10;99.90;;;;;;4966244;28;20022;-54
2022/01/11 07:27:22;;;;;;;93.30;30.00;;;-1.10;99.90;;;;;;4965014;28;20066;-54
2022/01/11 07:29:49;;;;;;;92.97;29.92;;;-1.10;99.90;;;;;;4959197;28;20061;-52
2022/01/11 07:32:14;;;;;;;87.38;30.27;;;-1.10;99.90;;;;;;4963204;28;20045;-56
2022/01/11 07:34:40;;;;;;;85.85;29.25;;;-1.10;99.90;;;;;;4959924;28;20395;-53
2022/01/11 07:37:06;;;;;;;93.97;30.42;;;-1.10;99.90;;;;;;4955819;28;20047;-56
2022/01/11 07:39:32;;;;;;;85.75;30.02;;;-1.20;99.90;;;;;;4966065;28;20421;-53
2022/01/11 07:41:58;;;;;;;98.90;31.48;;;-1.00;99.90;;;;;;4964501;28;20035;-54
2022/01/11 07:44:24;;;;;;;102.32;32.03;;;0.20;99.90;;;;;;4947053;28;20043;-57
2022/01/11 07:46:52;;;;;;;105.63;32.00;;;-1.00;99.90;;;;;;4955110;28;20054;-57
2022/01/11 07:49:19;;;;;;;109.63;34.15;;;-0.80;99.90;;;;;;4974281;28;20046;-58
2022/01/11 07:51:45;;;;;;;111.72;33.75;;;-1.00;99.90;;;;;;4967748;28;20118;-56
2022/01/11 07:54:11;;;;;;;106.57;34.85;;;-0.90;99.90;;;;;;4963313;28;20039;-57
2022/01/11 07:56:37;;;;;;;117.07;34.88;;;-0.90;99.90;;;;;;4961735;28;20082;-59
2022/01/11 07:59:03;;;;;;;114.75;35.60;;;-0.90;99.90;;;;;;4969365;28;20105;-56
2022/01/11 08:01:29;;;;;;;125.78;38.00;;;-0.90;99.90;;;;;;4967096;28;20114;-55
2022/01/11 08:03:54;;;;;;;118.07;36.72;;;-0.90;99.90;;;;;;4972220;28;20480;-54
2022/01/11 08:06:20;;;;;;;119.85;36.80;;;-0.80;99.90;;;;;;4964862;28;20050;-57
2022/01/11 08:08:46;;;;;;;128.00;38.65;;;-0.80;99.90;;;;;;4955456;28;20047;-56
2022/01/11 08:11:11;;;;;;;123.68;37.65;;;-0.80;99.90;;;;;;4956985;28;20046;-55
2022/01/11 08:13:38;;;;;;;121.85;38.85;;;-0.70;99.90;;;;;;4962433;28;20078;-53
2022/01/11 08:16:04;;;;;;;125.90;38.40;;;-0.70;99.90;;;;;;4949664;28;20045;-56
2022/01/11 08:18:30;;;;;;;123.07;38.80;;;-0.70;99.90;;;;;;4967254;28;20526;-57
2022/01/11 08:20:56;;;;;;;130.82;38.75;;;-0.70;99.90;;;;;;4963929;28;20041;-57
2022/01/11 08:23:21;;;;;;;117.78;38.33;;;-0.60;99.90;;;;;;4959800;28;20530;-56
2022/01/11 08:25:47;;;;;;;126.43;40.00;;;-0.60;99.90;;;;;;4956127;28;20034;-55
2022/01/11 08:28:13;;;;;;;120.47;39.10;;;-0.60;99.90;;;;;;4953858;28;20855;-53
2022/01/11 08:30:39;;;;;;;119.13;39.03;;;-0.50;99.90;;;;;;4955837;28;20051;-54
2022/01/11 08:33:05;;;;;;;125.65;39.45;;;-0.50;99.90;;;;;;4955496;28;20530;-54
2022/01/11 08:35:35;;;;;;;135.02;39.78;;;-0.50;99.90;;;;;;4951804;28;20046;-56
2022/01/11 08:38:01;;;;;;;121.13;38.80;;;-0.40;99.90;;;;;;4955571;28;20040;-53
2022/01/11 08:40:27;;;;;;;114.78;39.47;;;-0.40;99.90;;;;;;4957014;28;20027;-55
2022/01/11 08:42:53;;;;;;;120.55;41.25;;;-0.40;99.90;;;;;;4956328;28;20534;-57
2022/01/11 08:45:19;;;;;;;111.45;38.10;;;-0.40;99.90;;;;;;4957599;28;20390;-57
2022/01/11 08:47:46;;;;;;;124.20;39.88;;;-0.30;99.90;;;;;;4954808;28;23011;-52
2022/01/11 08:50:13;;;;;;;111.07;39.40;;;-0.30;99.90;;;;;;4958462;28;20046;-53
2022/01/11 08:52:40;;;;;;;113.57;38.00;;;-0.30;99.90;;;;;;4957627;28;20040;-52
2022/01/11 08:55:07;;;;;;;109.38;38.03;;;-0.30;99.90;;;;;;4957029;28;20096;-57
2022/01/11 08:57:34;;;;;;;108.75;39.33;;;-0.20;99.90;;;;;;4959187;28;20046;-54
2022/01/11 09:00:02;;;;;;;99.25;36.50;;;-0.20;99.90;;;;;;4958448;28;20483;-54
2022/01/11 09:02:28;;;;;;;104.95;37.22;;;-0.20;99.90;;;;;;4956698;28;20050;-56
2022/01/11 09:04:54;;;;;;;108.65;37.45;;;-0.20;99.90;;;;;;4957838;28;20383;-55
2022/01/11 09:07:20;;;;;;;101.35;36.13;;;-0.20;99.90;;;;;;4957316;28;20042;-53
2022/01/11 09:09:46;;;;;;;105.65;37.63;;;-0.20;99.90;;;;;;4957802;28;20086;-55
2022/01/11 09:12:13;;;;;;;92.82;36.65;;;-0.10;99.90;;;;;;4958982;28;20482;-57
2022/01/11 09:14:40;;;;;;;102.40;36.03;;;-0.10;99.90;;;;;;4957299;28;20043;-55
2022/01/11 09:17:06;;;;;;;103.15;36.72;;;-0.10;99.90;;;;;;4956557;28;20047;-57
2022/01/11 09:19:32;;;;;;;106.75;37.83;;;-0.10;99.90;;;;;;4958358;28;20069;-56
2022/01/11 09:21:59;;;;;;;104.93;37.38;;;-0.10;99.90;;;;;;4955830;28;20026;-56
2022/01/11 09:24:29;;;;;;;94.10;35.17;;;-0.10;99.90;;;;;;4957227;28;20503;-56
2022/01/11 09:26:58;;;;;;;97.13;35.17;;;-0.10;99.90;;;;;;4956044;28;20109;-56
2022/01/11 09:29:25;;;;;;;96.82;35.67;;;-0.10;99.90;;;;;;4956667;28;20053;-54
2022/01/11 09:31:51;;;;;;;89.78;36.85;;;0.00;99.90;;;;;;4959230;28;20080;-55
2022/01/11 09:34:17;;;;;;;88.63;35.70;;;0.00;99.90;;;;;;4941815;28;20074;-54
2022/01/11 09:36:42;;;;;;;84.90;36.33;;;0.00;99.90;;;;;;4957117;28;20085;-56
2022/01/11 09:39:08;;;;;;;94.85;36.22;;;0.00;99.90;;;;;;4939861;28;20403;-56
2022/01/11 09:41:34;;;;;;;89.50;34.22;;;0.00;99.90;;;;;;4942022;28;20085;-56
2022/01/11 09:44:00;;;;;;;96.60;34.78;;;0.00;99.90;;;;;;4956415;28;20035;-57
2022/01/11 09:46:27;;;;;;;82.15;34.08;;;0.10;99.90;;;;;;4956512;28;20063;-56
2022/01/11 09:48:52;;;;;;;91.57;34.28;;;0.50;99.90;;;;;;4957118;28;20093;-55
2022/01/11 09:51:18;;;;;;;85.88;33.60;;;0.10;99.90;;;;;;4955178;28;20039;-54
2022/01/11 09:53:44;;;;;;;86.70;34.30;;;0.10;99.90;;;;;;4957030;28;20043;-55
2022/01/11 09:56:10;;;;;;;84.85;34.08;;;0.10;99.90;;;;;;4956740;28;20061;-53
2022/01/11 09:58:36;;;;;;;82.60;34.67;;;0.10;99.90;;;;;;4959143;28;20037;-56
2022/01/11 10:01:03;;;;;;;89.68;33.95;;;0.10;99.90;;;;;;4958204;28;20031;-55
2022/01/11 10:03:29;;;;;;;86.60;35.00;;;0.20;99.90;;;;;;4955566;28;20035;-55
2022/01/11 10:05:54;;;;;;;80.43;32.00;;;0.20;99.90;;;;;;4959803;28;20098;-55
2022/01/11 10:08:27;;;;;;;78.15;32.95;;;0.20;99.90;;;;;;4960974;28;20395;-54
2022/01/11 10:10:57;;;;;;;76.28;31.13;;;0.20;99.90;;;;;;4960443;28;20381;-57
2022/01/11 10:13:41;;;;;;;75.18;32.42;;;0.20;99.90;;;;;;4956559;28;20035;-55
2022/01/11 10:16:22;;;;;;;68.13;29.55;;;0.20;99.90;;;;;;4957045;28;20043;-54
2022/01/11 10:18:49;;;;;;;78.57;30.80;;;0.30;99.90;;;;;;4962421;28;20035;-55
2022/01/11 10:21:51;;;;;;;74.07;30.55;;;0.30;99.90;;;;;;4956474;28;20033;-57
2022/01/11 10:24:32;;;;;;;68.10;29.13;;;0.30;99.90;;;;;;4884172;29;20033;-56
2022/01/11 10:26:58;;;;;;;68.18;30.17;;;0.30;99.90;;;;;;4954131;28;20055;-57
2022/01/11 10:29:29;;;;;;;63.47;30.33;;;0.30;99.90;;;;;;4957383;28;20074;-57
2022/01/11 10:31:56;;;;;;;63.45;29.60;;;0.40;99.90;;;;;;4955967;28;20053;-55
2022/01/11 10:34:28;;;;;;;69.05;29.92;;;0.40;99.90;;;;;;4963796;28;20039;-57
2022/01/11 10:36:53;;;;;;;64.85;29.17;;;0.50;99.90;;;;;;4959592;28;20031;-57
2022/01/11 10:39:44;;;;;;;66.03;30.00;;;0.60;99.90;;;;;;4962657;28;20117;-56
2022/01/11 10:42:33;;;;;;;57.28;27.10;;;0.80;99.90;;;;;;4962012;28;20129;-58
2022/01/11 10:45:03;;;;;;;48.92;24.63;;;1.20;99.90;;;;;;4960582;28;20047;-57
2022/01/11 10:47:41;;;;;;;42.97;23.48;;;1.60;99.90;;;;;;4947980;28;20047;-56
2022/01/11 10:50:27;;;;;;;42.13;22.27;;;1.90;99.90;;;;;;4963967;28;20054;-56
2022/01/11 10:52:55;;;;;;;37.92;21.20;;;2.10;99.90;;;;;;4963927;28;20053;-57
2022/01/11 10:55:24;;;;;;;41.97;20.58;;;2.20;99.90;;;;;;4969719;28;20117;-57
2022/01/11 10:57:56;;;;;;;37.08;19.88;;;2.30;99.90;;;;;;4970309;28;20122;-57
2022/01/11 11:00:36;;;;;;;35.70;19.52;;;2.40;99.90;;;;;;4961537;28;20043;-57
2022/01/11 11:03:16;;;;;;;38.03;20.65;;;2.40;99.90;;;;;;4963358;28;20046;-57
2022/01/11 11:05:53;;;;;;;35.80;19.88;;;2.50;99.90;;;;;;4962996;28;20475;-57
2022/01/11 11:08:23;;;;;;;37.60;19.92;;;2.50;99.90;;;;;;4960731;28;20059;-58
2022/01/11 11:11:00;;;;;;;36.08;20.65;;;2.50;99.90;;;;;;4961892;28;20047;-58
2022/01/11 11:13:30;;;;;;;39.08;20.60;;;2.60;99.90;;;;;;4964816;28;20054;-57
2022/01/11 11:16:11;;;;;;;42.22;21.27;;;2.50;99.90;;;;;;4964452;28;20047;-57
2022/01/11 11:18:47;;;;;;;38.42;20.48;;;2.50;99.90;;;;;;4963981;28;20053;-57
2022/01/11 11:21:17;;;;;;;38.85;20.48;;;2.60;99.90;;;;;;4963992;28;20037;-57
2022/01/11 11:23:43;;;;;;;35.92;20.10;;;2.70;99.90;;;;;;4957396;28;20090;-56
2022/01/11 11:26:10;;;;;;;35.30;19.65;;;2.70;99.90;;;;;;4943090;28;20050;-56
2022/01/11 11:28:38;;;;;;;37.53;19.75;;;2.80;99.90;;;;;;4959360;28;20469;-57
2022/01/11 11:31:04;;;;;;;35.92;19.02;;;3.00;99.90;;;;;;4948943;28;20070;-57
2022/01/11 11:33:30;;;;;;;36.72;19.40;;;3.20;99.90;;;;;;4968223;28;20078;-56
2022/01/11 11:35:57;;;;;;;32.60;17.88;;;3.30;99.90;;;;;;4955882;28;20047;-57
2022/01/11 11:38:29;;;;;;;28.85;17.63;;;3.40;99.90;;;;;;4960593;28;20055;-57
2022/01/11 11:40:56;;;;;;;31.63;18.38;;;3.50;99.90;;;;;;4956099;28;20459;-59
2022/01/11 11:43:22;;;;;;;34.85;18.30;;;3.60;99.90;;;;;;4968434;28;20042;-57
2022/01/11 11:45:48;;;;;;;30.70;17.50;;;3.80;99.90;;;;;;4974227;28;20085;-58
2022/01/11 11:48:23;;;;;;;35.78;16.02;;;4.00;99.90;;;;;;4962624;28;20050;-57
2022/01/11 11:50:51;;;;;;;28.85;16.73;;;4.20;99.90;;;;;;4954320;28;20047;-58
2022/01/11 11:53:31;;;;;;;30.08;16.27;;;4.30;99.90;;;;;;4960327;28;20519;-58
2022/01/11 11:56:17;;;;;;;27.38;15.52;;;4.30;99.90;;;;;;4972335;28;20117;-58
2022/01/11 11:58:46;;;;;;;29.17;16.58;;;4.50;99.90;;;;;;4957481;28;20090;-58
2022/01/11 12:01:45;;;;;;;26.50;15.60;;;4.80;99.90;;;;;;4965804;28;20039;-58
2022/01/11 12:04:31;;;;;;;28.02;14.80;;;4.70;99.90;;;;;;4965302;28;20070;-59
2022/01/11 12:07:00;;;;;;;30.02;16.08;;;4.40;99.90;;;;;;4965944;28;20050;-57
2022/01/11 12:09:31;;;;;;;28.02;16.23;;;4.20;99.90;;;;;;4962157;28;20035;-58
2022/01/11 12:11:59;;;;;;;30.63;17.30;;;4.00;99.90;;;;;;4964619;28;20450;-58
2022/01/11 12:14:36;;;;;;;31.65;17.00;;;3.90;99.90;;;;;;4966682;28;20074;-57
2022/01/11 12:17:22;;;;;;;28.83;15.77;;;3.80;99.90;;;;;;4950039;28;20053;-58
2022/01/11 12:19:49;;;;;;;32.15;16.45;;;3.80;99.90;;;;;;4961994;28;20540;-59
2022/01/11 12:22:23;;;;;;;28.25;16.60;;;3.80;99.90;;;;;;4959733;28;20039;-59
2022/01/11 12:24:52;;;;;;;30.65;16.27;;;3.80;99.90;;;;;;4961047;28;20110;-59
2022/01/11 12:27:21;;;;;;;29.30;15.90;;;3.90;99.90;;;;;;4960237;28;20059;-58
2022/01/11 12:30:08;;;;;;;28.58;15.45;;;3.90;99.90;;;;;;4964761;28;20063;-59
2022/01/11 12:32:38;;;;;;;26.63;15.63;;;4.00;99.90;;;;;;4960787;28;20110;-58
2022/01/11 12:35:10;;;;;;;26.23;14.68;;;4.00;99.90;;;;;;4958912;28;20506;-58
2022/01/11 12:37:38;;;;;;;27.83;15.90;;;4.10;99.90;;;;;;4958978;28;20421;-58